createdAt,value
2023-02-20T06:19:13.681Z,6.51
2023-02-20T06:29:13.714Z,6.46
2023-02-20T06:39:13.908Z,6.30
2023-02-20T06:49:13.783Z,7.05
2023-02-20T06:59:13.917Z,7.54
2023-02-20T07:09:13.894Z,7.67
2023-02-20T07:19:13.932Z,7.46
2023-02-20T07:29:13.965Z,7.53
2023-02-20T07:39:13.708Z,7.52
2023-02-20T07:49:13.861Z,7.48
2023-02-20T07:59:13.805Z,7.44
2023-02-20T08:09:13.855Z,7.40
2023-02-20T08:19:14.044Z,7.38
2023-02-20T08:29:13.891Z,7.35
2023-02-20T08:39:14.030Z,7.44
2023-02-20T08:49:14.069Z,7.49
2023-02-20T08:59:14.366Z,7.56
2023-02-20T09:09:14.328Z,7.76
2023-02-20T09:19:14.341Z,7.62
2023-02-20T09:29:14.235Z,7.59
2023-02-20T09:39:14.333Z,7.48
2023-02-20T09:49:14.484Z,7.46
2023-02-20T09:59:14.143Z,7.45
2023-02-20T10:09:14.307Z,7.49
2023-02-20T10:19:14.400Z,7.41
2023-02-20T10:29:14.447Z,7.46
2023-02-20T10:39:14.435Z,7.52
2023-02-20T10:49:14.270Z,7.47
2023-02-20T10:59:14.445Z,7.51
2023-02-20T11:09:14.392Z,7.47
2023-02-20T11:19:14.385Z,7.43
2023-02-20T11:29:14.474Z,7.40
2023-02-20T11:39:14.469Z,7.42
2023-02-20T11:49:14.442Z,7.47
2023-02-20T11:59:14.515Z,7.54
2023-02-20T12:09:14.522Z,7.57
2023-02-20T12:19:14.378Z,7.58
2023-02-20T12:29:14.293Z,7.51
2023-02-20T12:39:14.478Z,7.50
2023-02-20T12:49:14.479Z,7.43
2023-02-20T12:59:14.431Z,7.31
2023-02-20T13:09:14.410Z,7.26
2023-02-20T13:19:14.467Z,7.30
2023-02-20T13:29:14.418Z,7.40
2023-02-20T13:39:14.452Z,7.44
2023-02-20T13:49:14.451Z,7.49
2023-02-20T13:59:14.352Z,7.55
2023-02-20T14:09:14.530Z,7.43
2023-02-20T14:19:14.314Z,7.39
2023-02-20T14:29:14.525Z,7.29
2023-02-20T14:39:14.609Z,7.33
2023-02-20T14:49:14.604Z,7.38
2023-02-20T14:59:14.500Z,7.45
2023-02-20T15:09:22.284Z,7.40
2023-02-20T15:19:14.563Z,7.35
2023-02-20T15:29:14.539Z,7.35
2023-02-20T15:39:14.492Z,7.29
2023-02-20T15:49:20.500Z,7.32
2023-02-20T15:59:14.547Z,7.34
2023-02-20T16:09:14.629Z,7.44
2023-02-20T16:19:14.454Z,7.43
2023-02-20T16:29:14.487Z,7.53
2023-02-20T16:39:24.635Z,7.41
2023-02-20T16:49:14.475Z,7.38
2023-02-20T16:59:14.668Z,7.37
2023-02-20T17:09:14.562Z,7.44
2023-02-20T17:19:14.446Z,7.51
2023-02-20T17:29:14.613Z,7.56
2023-02-20T17:39:14.498Z,7.64
2023-02-20T17:49:14.667Z,7.74
2023-02-20T17:59:14.662Z,7.86
2023-02-20T18:09:14.684Z,8.03
2023-02-20T18:19:14.547Z,8.08
2023-02-20T18:29:14.644Z,8.07
2023-02-20T18:39:14.563Z,8.04
2023-02-20T18:49:14.570Z,7.92
2023-02-20T18:59:14.655Z,7.99
2023-02-20T19:09:14.730Z,8.04
2023-02-20T19:19:18.484Z,8.17
